Time;durP1;ratioP1;P1;durP2;ratioP2;P2;SDS_P1;SDS_P2;PMS_P1;PMS_P2;Temp;Humidity;BMP_temperature;BMP_pressure;BME280_temperature;BME280_humidity;BME280_pressure;Samples;Min_cycle;Max_cycle;Signal;HPM_P1;HPM_P2
2021/09/24 00:00:58;;;;;;;14.30;7.67;;;;;14.70;101292.00;;;;10451288;28;20222;-78
2021/09/24 00:06:00;;;;;;;15.27;9.07;;;;;14.70;101284.00;;;;10460791;28;20228;-78
2021/09/24 00:11:03;;;;;;;14.50;8.00;;;;;14.70;101290.00;;;;10451496;28;20225;-78
2021/09/24 00:16:04;;;;;;;19.57;9.43;;;;;14.70;101294.00;;;;10451665;28;20200;-77
2021/09/24 00:21:07;;;;;;;16.07;9.30;;;;;14.60;101288.00;;;;10474127;28;20536;-77
2021/09/24 00:26:09;;;;;;;16.17;9.60;;;;;14.60;101294.00;;;;10462578;28;20238;-78
2021/09/24 00:31:10;;;;;;;22.43;10.87;;;;;14.70;101288.00;;;;10470751;28;20229;-77
2021/09/24 00:36:12;;;;;;;24.57;10.90;;;;;14.70;101284.00;;;;10457955;28;20229;-78
2021/09/24 00:41:14;;;;;;;15.67;10.67;;;;;14.80;101282.00;;;;10459616;28;20251;-78
2021/09/24 00:46:16;;;;;;;20.27;12.60;;;;;14.90;101287.00;;;;10449098;28;20608;-77
2021/09/24 00:51:19;;;;;;;22.27;11.73;;;;;15.00;101281.00;;;;10447088;28;20552;-77
2021/09/24 00:56:21;;;;;;;23.00;13.17;;;;;15.10;101281.00;;;;10474187;28;20186;-77
2021/09/24 01:01:23;;;;;;;28.83;14.60;;;;;15.20;101285.00;;;;10434396;28;20212;-77
2021/09/24 01:06:26;;;;;;;17.73;12.87;;;;;15.20;101285.00;;;;10431084;28;20210;-77
2021/09/24 01:11:28;;;;;;;25.30;14.40;;;;;15.30;101272.00;;;;10443942;28;20190;-77
2021/09/24 01:16:30;;;;;;;30.07;15.23;;;;;15.30;101274.00;;;;10432083;28;20602;-78
2021/09/24 01:21:32;;;;;;;22.00;14.13;;;;;15.40;101273.00;;;;10430729;28;20235;-77
2021/09/24 01:26:34;;;;;;;23.27;14.27;;;;;15.40;101273.00;;;;10442881;28;20301;-78
2021/09/24 01:31:36;;;;;;;22.20;15.17;;;;;15.50;101278.00;;;;10470601;28;20252;-78
2021/09/24 01:36:38;;;;;;;24.03;14.67;;;;;15.50;101282.00;;;;10466908;28;20185;-77
2021/09/24 01:41:42;;;;;;;26.13;14.63;;;;;15.50;101269.00;;;;10464357;28;20214;-77
2021/09/24 01:46:46;;;;;;;32.63;16.20;;;;;15.50;101269.00;;;;10429627;28;20214;-78
2021/09/24 01:51:49;;;;;;;21.93;13.90;;;;;15.60;101268.00;;;;10413420;28;20670;-77
2021/09/24 01:56:51;;;;;;;25.87;15.50;;;;;15.60;101270.00;;;;10433746;28;20272;-77
2021/09/24 02:01:53;;;;;;;25.60;15.03;;;;;15.60;101262.00;;;;10431384;28;20194;-77
2021/09/24 02:06:55;;;;;;;25.27;15.50;;;;;15.60;101259.00;;;;10441655;28;20206;-77
2021/09/24 02:11:57;;;;;;;25.77;14.07;;;;;15.70;101267.00;;;;10415198;28;20262;-78
2021/09/24 02:16:59;;;;;;;20.70;13.47;;;;;15.70;101253.00;;;;10452544;28;20668;-78
2021/09/24 02:22:02;;;;;;;28.83;16.07;;;;;15.70;101254.00;;;;10450211;28;20252;-78
2021/09/24 02:27:04;;;;;;;24.37;13.27;;;;;15.70;101257.00;;;;10471805;28;20422;-78
2021/09/24 02:32:06;;;;;;;19.20;14.10;;;;;15.70;101265.00;;;;10446607;28;20218;-77
2021/09/24 02:37:08;;;;;;;22.90;14.47;;;;;15.70;101258.00;;;;10475274;28;20189;-78
2021/09/24 02:42:10;;;;;;;22.30;15.57;;;;;15.80;101253.00;;;;10446283;28;20209;-78
2021/09/24 02:47:12;;;;;;;24.30;14.87;;;;;15.80;101252.00;;;;10472063;28;20595;-78
2021/09/24 02:52:15;;;;;;;25.23;15.00;;;;;15.80;101247.00;;;;10458968;28;20247;-77
2021/09/24 02:57:16;;;;;;;27.03;16.67;;;;;15.80;101244.00;;;;10443482;28;20548;-78
2021/09/24 03:02:18;;;;;;;26.07;16.07;;;;;15.80;101254.00;;;;10486697;28;20668;-77
2021/09/24 03:07:21;;;;;;;22.90;15.57;;;;;15.80;101253.00;;;;10461541;28;20201;-78
2021/09/24 03:12:23;;;;;;;25.93;14.40;;;;;15.90;101255.00;;;;10440580;28;20731;-77
2021/09/24 03:17:25;;;;;;;19.53;13.37;;;;;15.90;101259.00;;;;10411988;28;20194;-78
2021/09/24 03:22:27;;;;;;;38.17;16.00;;;;;15.90;101259.00;;;;10457299;28;20272;-78
2021/09/24 03:27:29;;;;;;;24.10;15.40;;;;;15.90;101248.00;;;;10446795;28;20201;-77
2021/09/24 03:32:32;;;;;;;30.27;15.43;;;;;15.90;101241.00;;;;10480960;28;20269;-78
2021/09/24 03:37:34;;;;;;;31.07;16.30;;;;;15.90;101239.00;;;;10454447;28;20212;-78
2021/09/24 03:42:36;;;;;;;25.87;15.83;;;;;15.90;101240.00;;;;10476990;28;20225;-78
2021/09/24 03:47:38;;;;;;;27.57;16.67;;;;;15.90;101230.00;;;;10477832;28;20214;-77
2021/09/24 03:52:40;;;;;;;28.00;15.73;;;;;15.90;101231.00;;;;10443149;28;20194;-78
2021/09/24 03:57:42;;;;;;;28.20;17.47;;;;;15.90;101233.00;;;;10453363;28;20228;-77
2021/09/24 04:02:44;;;;;;;27.03;16.17;;;;;15.90;101225.00;;;;10455682;28;20700;-77
2021/09/24 04:07:46;;;;;;;24.20;17.23;;;;;16.00;101232.00;;;;10456119;28;20213;-77
2021/09/24 04:12:48;;;;;;;26.40;16.30;;;;;16.00;101244.00;;;;10442566;28;20561;-77
2021/09/24 04:17:50;;;;;;;24.73;15.67;;;;;16.00;101247.00;;;;10427467;28;20204;-77
2021/09/24 04:22:52;;;;;;;23.23;15.43;;;;;16.00;101237.00;;;;10411956;28;20760;-77
2021/09/24 04:27:54;;;;;;;27.70;16.80;;;;;16.00;101247.00;;;;10455649;28;20213;-77
2021/09/24 04:32:56;;;;;;;31.53;17.17;;;;;16.00;101253.00;;;;10478319;28;20186;-78
2021/09/24 04:37:58;;;;;;;27.93;16.97;;;;;16.00;101252.00;;;;10440011;28;20851;-78
2021/09/24 04:43:01;;;;;;;30.17;18.07;;;;;16.00;101254.00;;;;10466789;28;20210;-77
2021/09/24 04:48:04;;;;;;;27.17;16.93;;;;;16.00;101244.00;;;;10417392;28;20261;-78
2021/09/24 04:53:06;;;;;;;33.03;17.47;;;;;16.00;101253.00;;;;10434390;28;20599;-78
2021/09/24 04:58:08;;;;;;;27.67;16.87;;;;;16.00;101255.00;;;;10442931;28;20269;-77
2021/09/24 05:03:09;;;;;;;36.63;19.43;;;;;16.00;101259.00;;;;10440370;28;20237;-78
2021/09/24 05:08:11;;;;;;;33.27;19.57;;;;;16.00;101254.00;;;;10415859;28;20741;-78
2021/09/24 05:13:14;;;;;;;39.87;21.10;;;;;16.00;101255.00;;;;10469784;28;20189;-78
2021/09/24 05:18:15;;;;;;;31.20;20.33;;;;;16.00;101245.00;;;;10449994;28;20240;-78
2021/09/24 05:23:19;;;;;;;33.13;20.17;;;;;16.10;101243.00;;;;10456875;28;20197;-78
2021/09/24 05:28:22;;;;;;;32.33;18.73;;;;;16.10;101232.00;;;;10488790;28;20229;-78
2021/09/24 05:33:24;;;;;;;32.23;18.13;;;;;16.10;101239.00;;;;10445568;28;20199;-77
2021/09/24 05:38:25;;;;;;;34.13;18.90;;;;;16.10;101236.00;;;;10451062;28;20194;-78
2021/09/24 05:51:33;;;;;;;28.37;17.87;;;;;16.10;101236.00;;;;10517405;28;20622;-77
2021/09/24 05:56:35;;;;;;;29.98;17.38;;;;;16.10;101244.00;;;;10487079;28;20196;-76
2021/09/24 06:01:37;;;;;;;30.73;16.90;;;;;16.20;101246.00;;;;10467939;28;20190;-77
2021/09/24 06:06:39;;;;;;;28.13;18.20;;;;;16.30;101241.00;;;;10492981;28;20631;-78
2021/09/24 06:11:42;;;;;;;28.93;18.13;;;;;16.30;101256.00;;;;10478262;28;20198;-78
2021/09/24 06:16:44;;;;;;;30.50;17.10;;;;;16.40;101244.00;;;;10490793;28;20202;-78
2021/09/24 06:21:46;;;;;;;28.60;17.23;;;;;16.40;101239.00;;;;10493521;28;20281;-77
2021/09/24 06:26:48;;;;;;;28.07;17.30;;;;;16.50;101248.00;;;;10465991;28;20248;-77
2021/09/24 06:31:54;;;;;;;36.53;19.10;;;;;16.60;101248.00;;;;10449525;28;20198;-77
2021/09/24 06:36:56;;;;;;;30.38;16.50;;;;;16.70;101249.00;;;;10437980;28;20707;-77
2021/09/24 06:41:58;;;;;;;32.22;17.45;;;;;16.80;101248.00;;;;10420681;28;20214;-77
2021/09/24 06:47:02;;;;;;;21.38;15.25;;;;;16.90;101243.00;;;;10404709;28;20249;-78
2021/09/24 06:52:04;;;;;;;29.48;16.38;;;;;16.90;101248.00;;;;10456343;28;20209;-77
2021/09/24 06:57:07;;;;;;;30.45;15.93;;;;;17.10;101246.00;;;;10457258;28;20197;-78
2021/09/24 07:02:09;;;;;;;32.45;16.60;;;;;17.20;101237.00;;;;10413497;28;20317;-77
2021/09/24 07:07:11;;;;;;;29.55;14.52;;;;;17.20;101243.00;;;;10437474;28;20259;-77
2021/09/24 07:12:13;;;;;;;25.15;12.93;;;;;17.20;101251.00;;;;10389243;28;20690;-76
2021/09/24 07:17:15;;;;;;;24.17;14.30;;;;;17.30;101244.00;;;;10404458;28;20673;-76
2021/09/24 07:22:17;;;;;;;19.15;11.73;;;;;17.30;101245.00;;;;10405993;28;20562;-76
2021/09/24 07:27:19;;;;;;;25.08;11.88;;;;;17.60;101258.00;;;;10407758;28;20202;-76
2021/09/24 07:32:20;;;;;;;21.02;12.27;;;;;17.80;101254.00;;;;10398398;28;20551;-76
2021/09/24 07:37:22;;;;;;;20.02;11.00;;;;;17.90;101256.00;;;;10417709;28;20206;-76
2021/09/24 07:42:24;;;;;;;22.75;10.57;;;;;18.00;101262.00;;;;10369594;28;20221;-76
2021/09/24 07:47:26;;;;;;;15.75;10.25;;;;;18.20;101260.00;;;;10402548;28;20305;-76
2021/09/24 07:52:31;;;;;;;13.30;9.27;;;;;18.30;101264.00;;;;10398774;28;20222;-76
2021/09/24 07:57:34;;;;;;;17.92;10.13;;;;;18.40;101268.00;;;;10424041;28;20658;-76
2021/09/24 08:02:36;;;;;;;18.10;9.95;;;;;18.50;101277.00;;;;10417396;28;20209;-76
2021/09/24 08:07:38;;;;;;;19.05;10.63;;;;;18.70;101273.00;;;;10380706;28;20215;-76
2021/09/24 08:12:41;;;;;;;17.73;10.02;;;;;19.00;101273.00;;;;10411524;28;20609;-77
2021/09/24 08:17:48;;;;;;;17.13;10.23;;;;;19.40;101270.00;;;;10358738;28;20199;-77
2021/09/24 08:22:50;;;;;;;17.17;10.35;;;;;19.70;101266.00;;;;10406673;28;20199;-76
2021/09/24 08:27:52;;;;;;;15.50;10.30;;;;;19.80;101269.00;;;;10410048;28;20593;-77
2021/09/24 08:32:55;;;;;;;19.00;11.40;;;;;19.90;101269.00;;;;10418831;28;20229;-76
2021/09/24 08:37:58;;;;;;;19.25;10.98;;;;;19.90;101281.00;;;;10411766;28;20704;-76
2021/09/24 08:43:01;;;;;;;18.23;10.52;;;;;20.20;101278.00;;;;10387188;28;20240;-76
2021/09/24 08:48:06;;;;;;;19.23;10.27;;;;;20.70;101269.00;;;;10395705;28;20338;-76
2021/09/24 08:53:11;;;;;;;15.23;9.60;;;;;21.10;101263.00;;;;10447351;28;20195;-77
2021/09/24 08:58:15;;;;;;;16.50;8.95;;;;;21.20;101266.00;;;;10414329;28;20191;-77
2021/09/24 09:03:20;;;;;;;16.70;9.68;;;;;21.90;101266.00;;;;10426772;28;20191;-77
2021/09/24 09:08:27;;;;;;;14.85;8.27;;;;;22.60;101250.00;;;;10393743;28;20228;-78
2021/09/24 09:13:39;;;;;;;10.95;7.03;;;;;22.50;101253.00;;;;10390226;28;20199;-77
2021/09/24 09:18:44;;;;;;;12.55;8.10;;;;;22.40;101247.00;;;;10407807;28;20206;-77
2021/09/24 09:23:51;;;;;;;13.77;7.68;;;;;22.50;101256.00;;;;10393314;28;20203;-77
2021/09/24 09:28:57;;;;;;;12.98;6.97;;;;;23.00;101250.00;;;;10423892;28;20198;-77
2021/09/24 09:34:32;;;;;;;11.82;6.90;;;;;23.60;101242.00;;;;10389088;28;20197;-77
2021/09/24 09:39:34;;;;;;;7.65;6.10;;;;;23.60;101245.00;;;;10410592;28;20209;-77
2021/09/24 09:44:38;;;;;;;10.65;5.65;;;;;23.50;101243.00;;;;10395532;28;20206;-77
2021/09/24 09:49:39;;;;;;;9.73;6.15;;;;;23.50;101232.00;;;;10427535;28;20199;-77
2021/09/24 09:54:41;;;;;;;8.52;5.40;;;;;24.50;101229.00;;;;10387111;28;20298;-77
2021/09/24 09:59:53;;;;;;;13.45;5.72;;;;;25.80;101227.00;;;;10409032;28;21003;-77
2021/09/24 10:04:57;;;;;;;8.75;5.30;;;;;26.20;101231.00;;;;10398697;28;20199;-77
2021/09/24 10:10:13;;;;;;;6.70;4.40;;;;;26.30;101218.00;;;;10418830;28;20195;-77
2021/09/24 10:15:15;;;;;;;7.22;4.68;;;;;26.00;101215.00;;;;10421832;28;20195;-77
2021/09/24 10:20:17;;;;;;;10.32;4.93;;;;;26.40;101219.00;;;;10412193;28;20199;-78
2021/09/24 10:25:23;;;;;;;8.70;5.15;;;;;26.70;101213.00;;;;10419865;28;20241;-77
2021/09/24 10:30:28;;;;;;;6.55;4.22;;;;;27.10;101218.00;;;;10429968;28;20554;-77
2021/09/24 10:35:50;;;;;;;8.50;4.93;;;;;26.30;101215.00;;;;10420444;28;20264;-77
2021/09/24 10:41:04;;;;;;;6.07;4.40;;;;;26.00;101206.00;;;;10385650;28;20336;-78
2021/09/24 10:46:34;;;;;;;7.57;4.55;;;;;26.20;101204.00;;;;10418535;28;20243;-77
2021/09/24 10:51:37;;;;;;;9.18;4.25;;;;;26.40;101195.00;;;;10385864;28;20191;-78
2021/09/24 10:56:39;;;;;;;6.07;3.38;;;;;26.30;101200.00;;;;10344888;28;20659;-78
2021/09/24 11:01:41;;;;;;;8.27;3.53;;;;;27.20;101185.00;;;;10334045;28;20204;-76
2021/09/24 11:06:49;;;;;;;8.63;3.60;;;;;27.20;101186.00;;;;10350284;28;20206;-76
2021/09/24 11:12:02;;;;;;;4.93;3.33;;;;;26.90;101189.00;;;;10375315;28;20199;-76
2021/09/24 11:17:06;;;;;;;8.15;3.45;;;;;26.00;101186.00;;;;10370338;28;20199;-79
2021/09/24 11:22:12;;;;;;;8.65;3.92;;;;;25.40;101179.00;;;;10356459;28;20303;-77
2021/09/24 11:27:41;;;;;;;6.63;3.20;;;;;25.00;101179.00;;;;10381400;28;20199;-78
2021/09/24 11:32:46;;;;;;;5.95;3.70;;;;;25.20;101182.00;;;;10363438;28;20203;-79
2021/09/24 11:37:48;;;;;;;6.53;3.58;;;;;25.40;101179.00;;;;10377039;28;20705;-77
2021/09/24 11:42:52;;;;;;;6.22;3.30;;;;;25.40;101183.00;;;;10463338;28;20218;-77
2021/09/24 11:48:10;;;;;;;3.83;3.20;;;;;25.60;101170.00;;;;10432157;28;20247;-77
2021/09/24 11:53:13;;;;;;;6.80;3.60;;;;;25.50;101164.00;;;;10483824;28;20276;-77
2021/09/24 11:58:18;;;;;;;7.15;3.25;;;;;25.10;101170.00;;;;10483298;28;20263;-77
2021/09/24 12:03:27;;;;;;;5.32;3.30;;;;;24.70;101170.00;;;;10465957;28;20209;-77
2021/09/24 12:08:48;;;;;;;5.18;3.33;;;;;25.40;101158.00;;;;10421321;28;20220;-77
2021/09/24 12:13:53;;;;;;;6.38;2.35;;;;;25.50;101159.00;;;;10426594;28;20613;-77
2021/09/24 12:18:56;;;;;;;3.92;2.17;;;;;25.30;101164.00;;;;10456436;28;20210;-78
2021/09/24 12:23:59;;;;;;;3.03;1.88;;;;;26.00;101157.00;;;;10451594;28;20556;-77
2021/09/24 12:29:15;;;;;;;6.30;1.65;;;;;25.50;101146.00;;;;10451362;28;20236;-77
2021/09/24 12:34:42;;;;;;;4.25;1.20;;;;;25.70;101135.00;;;;10473471;28;20274;-76
2021/09/24 12:39:55;;;;;;;2.53;1.33;;;;;26.00;101119.00;;;;10440010;28;20222;-77
2021/09/24 12:45:00;;;;;;;5.18;1.65;;;;;26.80;101114.00;;;;10451646;28;20198;-77
2021/09/24 12:50:09;;;;;;;3.00;1.73;;;;;26.90;101116.00;;;;10428154;28;20193;-77
2021/09/24 12:55:13;;;;;;;6.20;1.80;;;;;26.20;101120.00;;;;10479669;28;20201;-77
2021/09/24 13:00:16;;;;;;;3.78;1.90;;;;;26.10;101120.00;;;;10432898;28;20210;-77
2021/09/24 13:05:21;;;;;;;2.03;1.20;;;;;26.20;101114.00;;;;10440366;28;20202;-77
2021/09/24 13:17:39;;;;;;;1.92;1.17;;;;;26.10;101091.00;;;;10493439;28;20215;-76
2021/09/24 13:22:41;;;;;;;4.75;1.55;;;;;25.60;101103.00;;;;10433939;28;20214;-76
2021/09/24 13:27:44;;;;;;;2.60;1.30;;;;;25.00;101096.00;;;;10452419;28;20210;-76
2021/09/24 13:32:46;;;;;;;1.63;1.33;;;;;25.30;101089.00;;;;10428223;28;20229;-76
2021/09/24 13:37:48;;;;;;;3.40;1.10;;;;;25.10;101080.00;;;;10427915;28;20195;-76
2021/09/24 13:42:50;;;;;;;4.00;1.25;;;;;24.70;101088.00;;;;10411099;28;20207;-76
2021/09/24 13:47:52;;;;;;;4.50;1.45;;;;;24.60;101085.00;;;;10393124;28;20565;-76
2021/09/24 13:53:15;;;;;;;1.15;1.05;;;;;24.20;101071.00;;;;10454987;28;20661;-76
2021/09/24 13:58:17;;;;;;;2.17;1.00;;;;;24.40;101065.00;;;;10435366;28;20213;-76
2021/09/24 14:03:19;;;;;;;1.60;0.90;;;;;25.00;101074.00;;;;10460744;28;20193;-77
2021/09/24 14:08:21;;;;;;;2.22;0.98;;;;;25.00;101066.00;;;;10468498;28;20202;-76
2021/09/24 14:13:24;;;;;;;3.25;0.93;;;;;24.80;101065.00;;;;10476584;28;20198;-76
2021/09/24 14:18:26;;;;;;;1.63;1.00;;;;;25.30;101057.00;;;;10409867;28;20264;-76
2021/09/24 14:23:29;;;;;;;1.88;1.05;;;;;28.10;101046.00;;;;10474933;28;20653;-76
2021/09/24 14:28:31;;;;;;;0.77;0.77;;;;;25.60;101061.00;;;;10432992;28;20255;-76
2021/09/24 14:33:33;;;;;;;2.08;1.17;;;;;24.40;101051.00;;;;10477518;28;20682;-76
2021/09/24 14:38:35;;;;;;;2.25;1.35;;;;;24.10;101051.00;;;;10406921;28;20352;-76
2021/09/24 14:43:37;;;;;;;1.02;1.02;;;;;24.30;101046.00;;;;10447030;28;20217;-76
2021/09/24 14:48:39;;;;;;;1.55;1.10;;;;;24.40;101050.00;;;;10483225;28;20205;-76
2021/09/24 14:53:41;;;;;;;0.90;0.85;;;;;24.30;101048.00;;;;10462643;28;20198;-76
2021/09/24 14:58:42;;;;;;;2.65;1.00;;;;;23.60;101055.00;;;;10424669;28;20214;-76
2021/09/24 15:03:44;;;;;;;3.60;1.30;;;;;23.30;101055.00;;;;10428158;28;20212;-76
2021/09/24 15:08:47;;;;;;;1.42;1.00;;;;;23.00;101050.00;;;;10439438;28;20744;-76
2021/09/24 15:13:49;;;;;;;1.75;0.80;;;;;23.00;101054.00;;;;10466793;28;20288;-76
2021/09/24 15:18:51;;;;;;;2.28;0.88;;;;;22.80;101049.00;;;;10441865;28;20214;-76
2021/09/24 15:23:53;;;;;;;1.27;0.90;;;;;22.70;101053.00;;;;10441901;28;20213;-75
2021/09/24 15:28:55;;;;;;;1.42;0.90;;;;;22.70;101049.00;;;;10513662;28;20255;-76
2021/09/24 15:33:57;;;;;;;4.00;1.20;;;;;22.30;101048.00;;;;10465099;28;20217;-76
2021/09/24 15:38:59;;;;;;;1.92;0.80;;;;;22.10;101054.00;;;;10426838;28;20222;-75
2021/09/24 15:44:03;;;;;;;1.65;0.80;;;;;22.30;101058.00;;;;10427746;28;20313;-77
2021/09/24 15:49:05;;;;;;;1.00;0.88;;;;;22.30;101060.00;;;;10402489;28;20199;-77
2021/09/24 15:54:07;;;;;;;2.65;1.10;;;;;22.10;101061.00;;;;10404875;28;20199;-77
2021/09/24 15:59:09;;;;;;;2.38;0.90;;;;;22.00;101063.00;;;;10421796;28;20665;-77
2021/09/24 16:04:11;;;;;;;1.75;1.00;;;;;21.70;101063.00;;;;10437776;28;20248;-77
2021/09/24 16:09:14;;;;;;;1.00;1.00;;;;;21.70;101071.00;;;;10439190;28;20182;-77
2021/09/24 16:14:16;;;;;;;1.75;1.10;;;;;21.50;101060.00;;;;10423902;28;20207;-77
2021/09/24 16:19:18;;;;;;;2.40;1.38;;;;;21.50;101063.00;;;;10381126;28;20962;-77
2021/09/24 16:24:19;;;;;;;3.70;1.30;;;;;21.50;101065.00;;;;10434604;28;20193;-77
2021/09/24 16:29:22;;;;;;;1.67;1.02;;;;;21.20;101076.00;;;;10450422;28;20190;-77
2021/09/24 16:34:24;;;;;;;2.85;1.17;;;;;21.00;101068.00;;;;10426208;28;20250;-76
2021/09/24 16:39:26;;;;;;;1.35;1.20;;;;;21.00;101071.00;;;;10396875;28;20230;-76
2021/09/24 16:44:28;;;;;;;1.33;1.23;;;;;20.90;101069.00;;;;10402370;28;20225;-76
2021/09/24 16:49:30;;;;;;;2.00;1.20;;;;;20.70;101069.00;;;;10415675;28;20595;-76
2021/09/24 16:54:32;;;;;;;2.60;1.42;;;;;20.40;101070.00;;;;10439736;28;20198;-76
2021/09/24 16:59:34;;;;;;;2.28;1.20;;;;;20.10;101075.00;;;;10434888;28;20217;-76
2021/09/24 17:04:36;;;;;;;1.95;1.38;;;;;20.00;101087.00;;;;10445657;28;20649;-76
2021/09/24 17:09:38;;;;;;;1.77;1.35;;;;;19.80;101083.00;;;;10418497;28;20658;-77
2021/09/24 17:14:40;;;;;;;1.75;1.40;;;;;19.60;101076.00;;;;10448130;28;20215;-77
2021/09/24 17:19:42;;;;;;;2.10;1.58;;;;;19.40;101082.00;;;;10431429;28;20200;-76
2021/09/24 17:24:44;;;;;;;2.13;1.50;;;;;19.30;101082.00;;;;10402169;28;20198;-76
2021/09/24 17:29:47;;;;;;;1.75;1.55;;;;;19.10;101088.00;;;;10404219;28;20240;-77
2021/09/24 17:34:52;;;;;;;2.03;1.83;;;;;19.00;101101.00;;;;10455374;28;20228;-77
2021/09/24 17:39:54;;;;;;;4.97;2.58;;;;;18.80;101103.00;;;;10416076;28;20630;-76
2021/09/24 17:44:55;;;;;;;4.05;3.08;;;;;18.70;101112.00;;;;10452644;28;20189;-76
2021/09/24 17:49:57;;;;;;;5.13;3.25;;;;;18.60;101121.00;;;;10437327;28;20244;-76
2021/09/24 17:54:59;;;;;;;6.10;3.80;;;;;18.50;101140.00;;;;10404581;28;20252;-76
2021/09/24 18:00:05;;;;;;;3.88;2.97;;;;;18.50;101133.00;;;;10421809;28;20206;-76
2021/09/24 18:05:07;;;;;;;4.38;3.28;;;;;18.50;101131.00;;;;10472016;28;20231;-77
2021/09/24 18:10:11;;;;;;;5.70;3.60;;;;;18.50;101130.00;;;;10434947;28;20191;-76
2021/09/24 18:15:14;;;;;;;5.18;4.38;;;;;18.40;101134.00;;;;10420249;28;20260;-77
2021/09/24 18:20:17;;;;;;;6.90;4.53;;;;;18.30;101130.00;;;;10427413;28;20221;-76
2021/09/24 18:25:19;;;;;;;8.93;4.07;;;;;18.30;101147.00;;;;10419033;28;20221;-77
2021/09/24 18:30:22;;;;;;;8.55;4.97;;;;;18.20;101148.00;;;;10439417;28;20255;-76
2021/09/24 18:35:24;;;;;;;8.23;5.43;;;;;18.10;101162.00;;;;10447475;28;20244;-78
2021/09/24 18:40:25;;;;;;;6.75;5.03;;;;;18.00;101157.00;;;;10443639;28;20263;-77
2021/09/24 18:45:27;;;;;;;9.10;4.82;;;;;17.80;101164.00;;;;10466719;28;20240;-79
2021/09/24 18:50:31;;;;;;;6.05;4.95;;;;;17.60;101164.00;;;;10400776;28;20205;-79
2021/09/24 18:55:33;;;;;;;11.27;5.55;;;;;17.40;101164.00;;;;10420729;28;20198;-79
2021/09/24 19:00:35;;;;;;;8.57;5.63;;;;;17.30;101167.00;;;;10450366;28;20201;-78
2021/09/24 19:05:38;;;;;;;9.70;5.18;;;;;17.20;101166.00;;;;10434513;28;20301;-78
2021/09/24 19:10:40;;;;;;;8.05;6.55;;;;;17.00;101167.00;;;;10455783;28;20205;-76
2021/09/24 19:15:42;;;;;;;8.88;5.70;;;;;16.90;101175.00;;;;10469902;28;20376;-76
2021/09/24 19:20:44;;;;;;;8.75;5.55;;;;;16.80;101171.00;;;;10473904;28;20815;-78
2021/09/24 19:25:46;;;;;;;8.90;6.20;;;;;16.70;101176.00;;;;10421912;28;20282;-78
2021/09/24 19:30:48;;;;;;;8.77;5.50;;;;;16.60;101177.00;;;;10443381;28;20639;-77
2021/09/24 19:35:51;;;;;;;8.52;6.72;;;;;16.50;101173.00;;;;10444735;28;21071;-77
2021/09/24 19:40:53;;;;;;;8.52;6.28;;;;;16.40;101182.00;;;;10435322;28;20218;-76
2021/09/24 19:45:55;;;;;;;9.82;5.93;;;;;16.30;101186.00;;;;10424994;28;20202;-76
2021/09/24 19:50:57;;;;;;;9.73;6.50;;;;;16.20;101179.00;;;;10400153;28;20197;-77
2021/09/24 19:56:01;;;;;;;10.03;6.47;;;;;16.10;101179.00;;;;10410094;28;20265;-78
2021/09/24 20:01:03;;;;;;;8.97;6.10;;;;;16.00;101177.00;;;;10424245;28;20206;-77
2021/09/24 20:06:06;;;;;;;9.60;6.40;;;;;15.90;101175.00;;;;10413195;28;20195;-76
2021/09/24 20:11:07;;;;;;;8.23;6.03;;;;;15.80;101166.00;;;;10417455;28;20206;-78
2021/09/24 20:16:09;;;;;;;10.93;6.50;;;;;15.70;101163.00;;;;10395383;28;20561;-78
2021/09/24 20:21:11;;;;;;;8.87;6.57;;;;;15.60;101156.00;;;;10465674;28;20209;-78
2021/09/24 20:26:13;;;;;;;11.63;6.83;;;;;15.50;101150.00;;;;10475129;28;20200;-78
2021/09/24 20:31:15;;;;;;;14.63;8.23;;;;;15.50;101156.00;;;;10433079;28;20198;-78
2021/09/24 20:36:21;;;;;;;13.03;7.37;;;;;15.50;101155.00;;;;10438144;28;20210;-78
2021/09/24 20:41:23;;;;;;;12.63;7.10;;;;;15.40;101146.00;;;;10433960;28;20217;-78
2021/09/24 20:46:24;;;;;;;10.20;6.40;;;;;15.30;101137.00;;;;10479470;28;20198;-78
2021/09/24 20:51:26;;;;;;;11.87;7.30;;;;;15.20;101134.00;;;;10441660;28;20298;-79
2021/09/24 20:56:28;;;;;;;12.67;7.17;;;;;15.20;101137.00;;;;10424253;28;20206;-78
2021/09/24 21:01:30;;;;;;;10.00;7.07;;;;;15.20;101144.00;;;;10464487;28;20248;-79
2021/09/24 21:06:35;;;;;;;11.13;7.07;;;;;15.20;101143.00;;;;10476156;28;20668;-79
2021/09/24 21:11:37;;;;;;;9.87;6.83;;;;;15.20;101142.00;;;;10417407;28;20232;-79
2021/09/24 21:16:39;;;;;;;10.50;6.67;;;;;15.10;101135.00;;;;10414182;28;20221;-78
2021/09/24 21:21:41;;;;;;;9.33;7.00;;;;;15.10;101144.00;;;;10434614;28;20228;-79
2021/09/24 21:26:43;;;;;;;11.63;7.00;;;;;15.10;101134.00;;;;10442236;28;20197;-79
2021/09/24 21:31:45;;;;;;;9.73;6.47;;;;;15.00;101134.00;;;;10487005;28;20441;-79
2021/09/24 21:36:47;;;;;;;13.13;7.07;;;;;15.00;101142.00;;;;10432521;28;20222;-78
2021/09/24 21:41:49;;;;;;;11.30;5.50;;;;;15.10;101143.00;;;;10453851;28;20233;-78
2021/09/24 21:46:51;;;;;;;6.73;5.10;;;;;15.10;101148.00;;;;10471449;28;20216;-78
2021/09/24 21:51:53;;;;;;;6.90;4.80;;;;;15.10;101147.00;;;;10448079;28;20187;-78
2021/09/24 21:56:55;;;;;;;7.87;5.00;;;;;15.10;101145.00;;;;10423080;28;20205;-78
2021/09/24 22:01:57;;;;;;;7.90;4.57;;;;;15.00;101143.00;;;;10429134;28;20206;-78
2021/09/24 22:07:01;;;;;;;8.63;4.93;;;;;14.90;101141.00;;;;10429818;28;20301;-79
2021/09/24 22:12:04;;;;;;;6.07;4.70;;;;;14.90;101142.00;;;;10413549;28;20202;-79
2021/09/24 22:17:06;;;;;;;5.10;4.03;;;;;15.00;101144.00;;;;10448852;28;20202;-78
2021/09/24 22:22:08;;;;;;;6.33;3.90;;;;;15.10;101162.00;;;;10455934;28;20264;-79
2021/09/24 22:27:10;;;;;;;7.40;3.90;;;;;15.20;101164.00;;;;10455701;28;20268;-79
2021/09/24 22:32:12;;;;;;;5.07;3.10;;;;;15.20;101167.00;;;;10424603;28;20194;-79
2021/09/24 22:37:14;;;;;;;5.57;3.00;;;;;15.10;101169.00;;;;10462362;28;20256;-78
2021/09/24 22:42:16;;;;;;;5.17;3.50;;;;;15.10;101167.00;;;;10429254;28;20214;-79
2021/09/24 22:47:18;;;;;;;5.70;2.90;;;;;15.10;101160.00;;;;10428807;28;20206;-79
2021/09/24 22:52:20;;;;;;;6.17;3.73;;;;;15.00;101164.00;;;;10433542;28;20193;-79
2021/09/24 22:57:22;;;;;;;6.37;4.30;;;;;15.00;101151.00;;;;10432997;28;20193;-79
2021/09/24 23:02:24;;;;;;;7.03;4.80;;;;;14.90;101150.00;;;;10506655;28;20262;-79
2021/09/24 23:07:26;;;;;;;5.13;3.90;;;;;14.80;101142.00;;;;10463759;28;20195;-79
2021/09/24 23:12:29;;;;;;;5.83;3.60;;;;;14.70;101137.00;;;;10453920;28;20252;-79
2021/09/24 23:17:33;;;;;;;6.23;4.17;;;;;14.70;101142.00;;;;10472877;28;20217;-78
2021/09/24 23:22:35;;;;;;;5.50;3.70;;;;;14.60;101132.00;;;;10470756;28;20213;-79
2021/09/24 23:27:36;;;;;;;6.40;4.37;;;;;14.50;101131.00;;;;10505249;28;20189;-79
2021/09/24 23:32:39;;;;;;;7.00;3.90;;;;;14.40;101126.00;;;;10450185;28;20194;-79
2021/09/24 23:37:41;;;;;;;6.33;4.10;;;;;14.40;101115.00;;;;10413643;28;20199;-79
2021/09/24 23:42:44;;;;;;;6.60;4.00;;;;;14.30;101109.00;;;;10462749;28;20748;-77
2021/09/24 23:47:47;;;;;;;6.07;4.30;;;;;14.20;101110.00;;;;10445596;28;20260;-79
2021/09/24 23:52:49;;;;;;;5.93;4.37;;;;;14.30;101095.00;;;;10430172;28;20220;-79
2021/09/24 23:57:52;;;;;;;7.80;4.23;;;;;14.30;101094.00;;;;10490198;28;20259;-79
